RJGGRJFF

Guest
Details From RJGG - Chubu Centrair Intl
To RJFF - Fukuoka
Flight Number -
Tags Generated
Created
Modified
Stats Distance 325 nm / 603 km
Max Altitude 0 ft / 0 m
Waypoints 3
Social Downloads 0
Likes 0
Share VATSIM

Download

Looking for another format? Having issues loading an existing format? Contact us
Advertisement - Login to hide

Notes

Generated

Route

RJGG DGC25 RJFF

ID Type Via Altitude Latitude Longitude Leg Dist Tot Dist Heading (true) Name
O RJGG APT - 0 ft / 0 m 34.87389˚ 136.80168˚ - 0 nm - -
DGC25 FIX - 0 ft / 0 m 33.78821˚ 130.87091˚ 301 nm 301 nm 259° / 256° -
O RJFF APT - 0 ft / 0 m 33.59692˚ 130.44319˚ 24 nm 325 nm 242° / 242° -

Altitude Profile

Advertisement - Login to hide

Weather


0- 5 10 15 20 25 30 35+ Temperature / ° C

Clouds and Precipitation
Forecast for 2018-05-22 18:00 UTC. Updated 5 hours ago

Ground ~20,000 ft ~40,000 ft Winds

RJGG

Details ICAO RJGG (NGO)
Name CHUBU CENTRAIR INTL
Region Japan
Timezone Asia/Tokyo (UTC+9.0)
Stats Elevation 15 ft / 5 m (AMSL)
Location 34.858414° 136.805408°
Runways 1
Magnetic Variation 7.609° W

METAR

RJGG 222200Z 10009KT 9999 FEW030 BKN050 19/13 Q1011 NOSIG

Decode

TAF

TAF RJGG 221705Z 2218/2400 12008KT 9999 FEW015 BKN030 TEMPO 2302/2309 4000 RA BR FEW005 BKN008 TEMPO 2309/2315 4000 RA BR FEW003 BKN005 BECMG 2312/2315 32010KT BECMG 2318/2321 31022KT

Decode

Departure Runways

ID Width Length Bearing (true) Bearing (mag) Surface Threshold Offset Overrun Length
18 197 ft / 60 m 11,511 ft / 3,509 m 168.81° 176.42° Asphalt 0 ft / 0 m 197 ft / 60 m
36 197 ft / 60 m 11,511 ft / 3,509 m 348.81° 356.42° Asphalt 0 ft / 0 m 197 ft / 60 m

RJFF

Details ICAO RJFF (FUK)
Name FUKUOKA
Region Japan
Timezone Asia/Tokyo (UTC+9.0)
Stats Elevation 32 ft / 10 m (AMSL)
Location 33.585943° 130.450686°
Runways 1
Magnetic Variation 7.481° W

METAR

RJFF 222230Z 14015KT 9999 -RA FEW008 SCT030 BKN060 20/17 Q1005 RMK 1ST008 3CU030 6SC060 A2968

Decode

TAF

TAF RJFF 221705Z 2218/2400 15009KT 9999 -RA FEW025 SCT030 BKN040 TEMPO 2221/2300 4000 SHRA BR TEMPO 2300/2303 4000 -SHRA BR BECMG 2301/2303 31012KT

Decode

Destination Runways

ID Width Length Bearing (true) Bearing (mag) Surface Threshold Offset Overrun Length
16 197 ft / 60 m 9,217 ft / 2,810 m 150.35° 157.83° Asphalt 0 ft / 0 m 719 ft / 219 m
34 197 ft / 60 m 9,217 ft / 2,810 m 330.35° 337.83° Asphalt 0 ft / 0 m 801 ft / 244 m

Approach Navaids

Runway Type Ident Frequency Range Bearing (true) Bearing (mag) Slope Elevation
16 Localiser IFO 111.70 MHz 18 nm / 33 km 150.48° 157.97° - 18 ft / 5 m (AMSL)
16 Glidescope IFO 111.70 MHz 10 nm / 19 km 150.35° 157.83° 3.00° 58 ft / 18 m (AMSL)
34 Localiser IFF 108.90 MHz 18 nm / 33 km 330.34° 337.83° - 18 ft / 5 m (AMSL)
34 Glidescope IFF 108.90 MHz 10 nm / 19 km 330.35° 337.83° 3.00° 46 ft / 14 m (AMSL)
34 DME IFF 108.90 MHz 18 nm / 33 km - - - 46 ft / 14 m (AMSL)

Popular Alternatives